Time;durP1;ratioP1;P1;durP2;ratioP2;P2;SDS_P1;SDS_P2;PMS_P1;PMS_P2;Temp;Humidity;BMP_temperature;BMP_pressure;BME280_temperature;BME280_humidity;BME280_pressure;Samples;Min_cycle;Max_cycle;Signal;HPM_P1;HPM_P2
2021/09/18 00:00:48;;;;;;;0.38;0.28;;;;;;;19.16;60.69;102421.94;5074019;28;20080;-63
2021/09/18 00:04:01;;;;;;;0.63;0.63;;;;;;;19.22;57.55;102432.25;5074410;28;20021;-65
2021/09/18 00:06:27;;;;;;;0.47;0.20;;;;;;;19.21;57.14;102428.69;5052558;28;20029;-66
2021/09/18 00:08:52;;;;;;;0.55;0.30;;;;;;;19.19;59.70;102435.28;5052644;28;20036;-65
2021/09/18 00:11:17;;;;;;;1.27;0.30;;;;;;;19.20;59.01;102442.44;5052795;28;20025;-66
2021/09/18 00:13:43;;;;;;;0.30;0.30;;;;;;;19.22;58.39;102424.94;5052628;28;20111;-66
2021/09/18 00:16:08;;;;;;;0.50;0.25;;;;;;;19.16;57.56;102427.38;5052648;28;20021;-65
2021/09/18 00:18:34;;;;;;;0.50;0.40;;;;;;;19.19;59.29;102429.81;5052791;28;20017;-65
2021/09/18 00:21:02;;;;;;;0.57;0.40;;;;;;;19.17;60.31;102426.38;5058444;28;20025;-65
2021/09/18 00:23:27;;;;;;;0.85;0.57;;;;;;;19.15;59.04;102423.78;5047104;28;20124;-66
2021/09/18 00:25:53;;;;;;;0.40;0.40;;;;;;;19.16;58.23;102430.97;5032677;28;20108;-64
2021/09/18 00:28:18;;;;;;;0.98;0.45;;;;;;;19.13;60.79;102431.22;5032558;28;20144;-65
2021/09/18 00:30:43;;;;;;;0.68;0.28;;;;;;;19.19;59.03;102435.28;5032736;28;20379;-65
2021/09/18 00:33:09;;;;;;;0.38;0.38;;;;;;;19.14;57.55;102438.41;5032163;28;20034;-66
2021/09/18 00:35:34;;;;;;;0.63;0.38;;;;;;;19.14;59.59;102442.97;5032324;28;20507;-65
2021/09/18 00:37:59;;;;;;;0.35;0.30;;;;;;;19.27;59.04;102443.59;5043623;28;20117;-65
2021/09/18 00:40:25;;;;;;;0.50;0.30;;;;;;;19.17;58.11;102453.66;5032552;28;20033;-64
2021/09/18 00:42:50;;;;;;;0.60;0.30;;;;;;;19.13;58.78;102453.03;5032475;28;20072;-66
2021/09/18 00:45:15;;;;;;;0.50;0.40;;;;;;;19.14;58.03;102445.72;5039187;28;20067;-65
2021/09/18 00:47:41;;;;;;;0.68;0.60;;;;;;;19.16;60.81;102449.19;5036111;28;20052;-64
2021/09/18 00:50:07;;;;;;;0.20;0.17;;;;;;;19.12;58.13;102443.13;5035713;28;20030;-65
2021/09/18 00:52:32;;;;;;;0.35;0.30;;;;;;;19.12;59.44;102439.53;5036164;28;20067;-66
2021/09/18 00:54:58;;;;;;;0.90;0.40;;;;;;;19.09;59.01;102442.53;5035885;28;20022;-66
2021/09/18 00:57:23;;;;;;;0.43;0.38;;;;;;;19.08;59.06;102443.56;5034490;28;20452;-64
2021/09/18 00:59:49;;;;;;;0.47;0.30;;;;;;;19.13;59.61;102441.25;5035991;28;20032;-65
2021/09/18 01:02:14;;;;;;;0.47;0.25;;;;;;;19.20;59.64;102437.00;5035750;28;20057;-66
2021/09/18 01:04:40;;;;;;;0.30;0.30;;;;;;;19.15;58.93;102444.75;5035993;28;20029;-65
2021/09/18 01:07:07;;;;;;;0.75;0.20;;;;;;;19.12;57.78;102440.41;5035665;28;20057;-65
2021/09/18 01:09:35;;;;;;;1.02;0.35;;;;;;;19.11;58.67;102446.84;5039733;28;20029;-63
2021/09/18 01:12:03;;;;;;;0.95;0.30;;;;;;;19.14;58.07;102448.44;5034798;28;20028;-66
2021/09/18 01:14:48;;;;;;;0.60;0.50;;;;;;;19.14;57.83;102446.56;5068679;28;20017;-63
2021/09/18 01:17:16;;;;;;;0.43;0.30;;;;;;;19.08;58.37;102452.59;5042830;28;20044;-65
2021/09/18 01:19:42;;;;;;;0.15;0.15;;;;;;;19.13;59.67;102447.56;5055247;28;20029;-65
2021/09/18 01:22:07;;;;;;;0.50;0.30;;;;;;;19.13;58.72;102452.16;5037513;28;20021;-66
2021/09/18 01:24:34;;;;;;;0.82;0.40;;;;;;;19.08;58.75;102460.78;5037462;28;20034;-65
2021/09/18 01:27:00;;;;;;;0.30;0.30;;;;;;;19.08;58.48;102454.47;5055152;28;20128;-66
2021/09/18 01:29:25;;;;;;;0.50;0.50;;;;;;;19.09;58.39;102461.63;5054053;28;20025;-66
2021/09/18 01:31:58;;;;;;;0.45;0.30;;;;;;;19.07;59.38;102460.91;5058612;28;20037;-62
2021/09/18 01:34:24;;;;;;;0.43;0.30;;;;;;;19.08;57.78;102463.50;5056747;28;20132;-66
2021/09/18 01:36:51;;;;;;;0.30;0.30;;;;;;;19.05;59.09;102462.91;5037438;28;20056;-65
2021/09/18 01:39:17;;;;;;;0.50;0.25;;;;;;;19.09;58.43;102462.50;5054635;28;20041;-65
2021/09/18 01:41:45;;;;;;;0.22;0.22;;;;;;;19.06;58.63;102462.78;5055153;28;20025;-64
2021/09/18 01:44:28;;;;;;;0.32;0.32;;;;;;;19.05;60.26;102466.50;5062180;28;20017;-66
2021/09/18 01:46:53;;;;;;;0.85;0.30;;;;;;;19.06;59.04;102462.78;5053037;28;20021;-65
2021/09/18 01:49:19;;;;;;;0.30;0.22;;;;;;;19.08;58.17;102468.94;5054623;28;20451;-66
2021/09/18 01:51:59;;;;;;;0.95;0.55;;;;;;;19.08;57.41;102473.53;5054859;28;20020;-65
2021/09/18 01:54:28;;;;;;;0.90;0.40;;;;;;;19.08;59.19;102463.50;5054868;28;20021;-66
2021/09/18 01:56:53;;;;;;;0.30;0.30;;;;;;;19.03;58.11;102475.81;5056417;28;20028;-66
2021/09/18 01:59:18;;;;;;;0.73;0.30;;;;;;;19.04;57.83;102464.78;5054711;28;20028;-66
2021/09/18 02:01:44;;;;;;;0.30;0.30;;;;;;;19.06;57.68;102467.38;5054725;28;20051;-65
2021/09/18 02:04:09;;;;;;;0.75;0.40;;;;;;;19.01;58.72;102466.91;5054258;28;20027;-64
2021/09/18 02:06:34;;;;;;;0.52;0.30;;;;;;;19.05;58.63;102468.38;5054380;28;20474;-66
2021/09/18 02:09:00;;;;;;;1.15;0.40;;;;;;;19.03;59.16;102467.63;5054289;28;20025;-66
2021/09/18 02:11:26;;;;;;;0.43;0.20;;;;;;;19.06;57.79;102470.94;5054377;28;20075;-65
2021/09/18 02:13:51;;;;;;;1.10;0.30;;;;;;;18.99;56.77;102467.06;5054311;28;20455;-65
2021/09/18 02:16:17;;;;;;;0.98;0.47;;;;;;;19.02;58.30;102465.91;5054352;28;20075;-66
2021/09/18 02:18:43;;;;;;;0.22;0.20;;;;;;;19.04;57.65;102463.91;5056216;28;20024;-63
2021/09/18 02:21:08;;;;;;;0.90;0.40;;;;;;;19.03;59.20;102473.94;5054178;28;20082;-65
2021/09/18 02:23:34;;;;;;;0.28;0.28;;;;;;;19.03;58.92;102462.19;5048371;28;20452;-65
2021/09/18 02:25:59;;;;;;;0.57;0.30;;;;;;;19.04;56.22;102469.38;5034253;28;20435;-65
2021/09/18 02:28:26;;;;;;;0.57;0.30;;;;;;;19.07;58.25;102463.63;5034278;28;20072;-65
2021/09/18 02:30:51;;;;;;;1.25;0.20;;;;;;;19.03;58.47;102463.06;5033905;28;20033;-64
2021/09/18 02:33:17;;;;;;;0.35;0.20;;;;;;;19.04;58.62;102463.91;5033818;28;20048;-66
2021/09/18 02:35:42;;;;;;;0.30;0.30;;;;;;;19.06;58.60;102468.22;5033902;28;20113;-65
2021/09/18 02:38:07;;;;;;;0.32;0.32;;;;;;;19.07;57.53;102467.22;5033799;28;20060;-65
2021/09/18 02:40:35;;;;;;;0.70;0.32;;;;;;;19.04;57.56;102475.69;5023890;28;20017;-63
2021/09/18 02:43:01;;;;;;;0.17;0.17;;;;;;;19.02;55.77;102474.09;5038348;28;20029;-65
2021/09/18 02:45:28;;;;;;;0.35;0.20;;;;;;;19.03;56.94;102467.63;5033555;28;20457;-65
2021/09/18 02:47:54;;;;;;;0.80;0.20;;;;;;;19.06;59.78;102472.81;5033722;28;20053;-64
2021/09/18 02:50:23;;;;;;;0.25;0.25;;;;;;;19.00;58.14;102470.66;5033511;28;20487;-65
2021/09/18 02:52:49;;;;;;;0.30;0.30;;;;;;;18.94;57.40;102470.16;5034006;28;20032;-65
2021/09/18 02:55:15;;;;;;;0.40;0.30;;;;;;;18.97;58.81;102479.94;5033436;28;20029;-67
2021/09/18 02:57:41;;;;;;;0.30;0.30;;;;;;;19.03;56.91;102468.50;5033590;28;20029;-65
2021/09/18 03:00:08;;;;;;;0.20;0.20;;;;;;;19.03;58.29;102468.50;5033470;28;20029;-65
2021/09/18 03:02:34;;;;;;;0.32;0.17;;;;;;;19.03;56.90;102467.63;5033599;28;20036;-65
2021/09/18 03:04:59;;;;;;;0.30;0.30;;;;;;;18.95;58.61;102471.03;5033170;28;20017;-66
2021/09/18 03:07:24;;;;;;;0.38;0.20;;;;;;;18.96;58.34;102472.75;5022504;28;20021;-65
2021/09/18 03:09:50;;;;;;;0.90;0.40;;;;;;;18.98;57.97;102472.63;5033500;28;20025;-65
2021/09/18 03:12:15;;;;;;;0.40;0.10;;;;;;;18.98;59.56;102464.44;5051501;28;20078;-66
2021/09/18 03:14:40;;;;;;;0.40;0.28;;;;;;;19.00;57.54;102467.91;5049290;28;20034;-66
2021/09/18 03:17:05;;;;;;;0.85;0.30;;;;;;;18.96;57.18;102469.16;5033157;28;20010;-65
2021/09/18 03:19:31;;;;;;;0.20;0.20;;;;;;;19.01;56.91;102470.50;5033436;28;20044;-66
2021/09/18 03:21:56;;;;;;;0.45;0.30;;;;;;;19.02;58.46;102476.81;5032881;28;20034;-65
2021/09/18 03:24:22;;;;;;;0.47;0.30;;;;;;;18.96;59.15;102472.75;5033096;28;20083;-66
2021/09/18 03:26:47;;;;;;;0.50;0.20;;;;;;;18.97;58.15;102479.06;5033425;28;20029;-65
2021/09/18 03:29:12;;;;;;;0.50;0.40;;;;;;;19.02;58.67;102472.22;5032775;28;20487;-65
2021/09/18 03:31:39;;;;;;;0.10;0.10;;;;;;;19.00;58.54;102473.38;5034195;28;20027;-62
2021/09/18 03:34:05;;;;;;;0.68;0.47;;;;;;;18.99;58.34;102471.66;5036454;28;20025;-67
2021/09/18 03:36:30;;;;;;;0.68;0.30;;;;;;;18.94;59.84;102467.44;5033104;28;20381;-65
2021/09/18 03:39:04;;;;;;;0.20;0.20;;;;;;;18.91;59.62;102467.72;5033656;28;20020;-65
2021/09/18 03:41:30;;;;;;;0.15;0.15;;;;;;;18.97;58.69;102469.03;5052767;28;20477;-66
2021/09/18 03:43:55;;;;;;;1.27;0.47;;;;;;;18.91;58.46;102464.13;5032992;28;20037;-65
2021/09/18 03:46:21;;;;;;;0.30;0.20;;;;;;;18.91;57.34;102473.16;5032974;28;20022;-65
2021/09/18 03:48:46;;;;;;;0.40;0.30;;;;;;;18.89;59.24;102475.19;5032651;28;20036;-65
2021/09/18 03:51:11;;;;;;;0.52;0.35;;;;;;;18.88;58.98;102473.44;5032835;28;20026;-65
2021/09/18 03:53:37;;;;;;;0.20;0.10;;;;;;;18.89;57.46;102472.44;5033166;28;20026;-65
2021/09/18 03:56:02;;;;;;;0.68;0.28;;;;;;;18.88;57.69;102484.34;5033098;28;20108;-62
2021/09/18 03:58:27;;;;;;;0.47;0.28;;;;;;;18.92;57.60;102476.75;5038138;28;20377;-65
2021/09/18 04:00:53;;;;;;;0.30;0.22;;;;;;;18.87;57.94;102482.63;5032802;28;20026;-65
2021/09/18 04:03:18;;;;;;;0.20;0.15;;;;;;;19.22;57.77;102489.53;5032543;28;20030;-65
2021/09/18 04:05:43;;;;;;;0.50;0.20;;;;;;;19.44;55.50;102489.31;5032948;28;20563;-64
2021/09/18 04:08:10;;;;;;;0.10;0.10;;;;;;;19.58;55.12;102481.78;5032387;28;20055;-66
2021/09/18 04:10:37;;;;;;;2.38;0.40;;;;;;;19.72;55.09;102478.66;5043827;28;20018;-65
2021/09/18 04:13:04;;;;;;;2.28;0.47;;;;;;;19.83;54.20;102484.00;5056405;28;20042;-64
2021/09/18 04:15:29;;;;;;;0.63;0.20;;;;;;;19.83;54.51;102478.53;5035801;28;20036;-66
2021/09/18 04:17:54;;;;;;;1.30;0.50;;;;;;;19.90;54.62;102487.88;5036664;28;20014;-66
2021/09/18 04:20:20;;;;;;;0.47;0.20;;;;;;;20.05;54.27;102486.44;5036243;28;20029;-65
2021/09/18 04:22:45;;;;;;;1.27;0.20;;;;;;;20.01;54.41;102493.19;5036584;28;20124;-65
2021/09/18 04:25:11;;;;;;;0.50;0.10;;;;;;;20.05;55.99;102493.78;5055614;28;20033;-66
2021/09/18 04:27:37;;;;;;;0.38;0.25;;;;;;;20.13;56.70;102492.03;5056603;28;20029;-65
2021/09/18 04:30:04;;;;;;;0.30;0.13;;;;;;;20.18;55.57;102498.94;5056103;28;20379;-65
2021/09/18 04:32:30;;;;;;;0.40;0.10;;;;;;;20.27;56.00;102504.41;5056242;28;20025;-65
2021/09/18 04:34:55;;;;;;;0.52;0.15;;;;;;;20.23;55.72;102504.84;5055748;28;20392;-65
2021/09/18 04:37:20;;;;;;;0.95;0.20;;;;;;;20.24;58.05;102509.28;5056183;28;20025;-65
2021/09/18 04:39:46;;;;;;;0.30;0.17;;;;;;;20.28;55.65;102511.56;5057201;28;20024;-65
2021/09/18 04:42:11;;;;;;;0.10;0.10;;;;;;;20.30;56.19;102503.25;5060862;28;20045;-65
2021/09/18 04:44:36;;;;;;;1.17;0.20;;;;;;;20.27;56.68;102520.78;5056089;28;20053;-66
2021/09/18 04:47:02;;;;;;;0.52;0.10;;;;;;;20.19;56.69;102514.31;5055729;28;20036;-64
2021/09/18 04:49:27;;;;;;;0.75;0.20;;;;;;;20.30;58.21;102519.63;5055870;28;20112;-66
2021/09/18 04:51:53;;;;;;;0.73;0.20;;;;;;;20.30;56.46;102525.94;5055980;28;20028;-65
2021/09/18 04:54:18;;;;;;;0.28;0.20;;;;;;;20.34;57.69;102515.63;5055901;28;20020;-65
2021/09/18 04:56:43;;;;;;;0.68;0.22;;;;;;;20.31;57.39;102510.44;5055921;28;20380;-65
2021/09/18 04:59:09;;;;;;;0.17;0.17;;;;;;;20.31;56.78;102515.88;5055714;28;20021;-66
2021/09/18 05:01:34;;;;;;;0.38;0.38;;;;;;;20.35;55.96;102517.34;5055836;28;20478;-65
2021/09/18 05:03:59;;;;;;;0.20;0.05;;;;;;;20.35;57.64;102522.81;5057476;28;20460;-65
2021/09/18 05:06:24;;;;;;;0.20;0.20;;;;;;;20.31;58.46;102522.22;5055683;28;20029;-65
2021/09/18 05:08:54;;;;;;;0.10;0.10;;;;;;;20.37;57.59;102526.25;5074962;28;20024;-66
2021/09/18 05:11:19;;;;;;;1.05;0.08;;;;;;;20.37;56.24;102520.78;5055344;28;20025;-65
2021/09/18 05:13:44;;;;;;;0.70;0.30;;;;;;;20.39;57.43;102535.16;5055476;28;20025;-65
2021/09/18 05:16:10;;;;;;;1.42;0.20;;;;;;;20.43;56.28;102531.16;5055418;28;20415;-65
2021/09/18 05:18:35;;;;;;;0.15;0.10;;;;;;;20.38;57.11;102526.13;5055636;28;20484;-65
2021/09/18 05:21:00;;;;;;;0.17;0.17;;;;;;;20.34;58.00;102521.09;5055349;28;20083;-65
2021/09/18 05:23:26;;;;;;;0.10;0.05;;;;;;;20.34;56.74;102529.28;5054469;28;20072;-64
2021/09/18 05:25:51;;;;;;;0.15;0.10;;;;;;;20.36;57.70;102521.81;5035035;28;20056;-65
2021/09/18 05:28:16;;;;;;;0.88;0.10;;;;;;;20.37;56.42;102527.13;5035297;28;20034;-66
2021/09/18 05:30:42;;;;;;;0.22;0.08;;;;;;;20.34;56.24;102535.59;5034410;28;20071;-65
2021/09/18 05:33:07;;;;;;;0.13;0.10;;;;;;;20.37;56.26;102527.13;5034805;28;20380;-65
2021/09/18 05:35:32;;;;;;;0.08;0.08;;;;;;;20.43;58.69;102532.03;5035061;28;20080;-65
2021/09/18 05:37:58;;;;;;;0.77;0.20;;;;;;;20.41;57.61;102538.66;5034763;28;20479;-66
2021/09/18 05:40:26;;;;;;;0.10;0.10;;;;;;;20.38;57.26;102536.19;5035151;28;20032;-65
2021/09/18 05:42:54;;;;;;;0.20;0.20;;;;;;;20.37;58.04;102531.72;5039588;28;20125;-65
2021/09/18 05:45:20;;;;;;;0.80;0.73;;;;;;;20.43;58.21;102536.63;5034750;28;20029;-65
2021/09/18 05:47:45;;;;;;;0.85;0.20;;;;;;;20.41;58.49;102533.19;5035298;28;20540;-66
2021/09/18 05:50:11;;;;;;;0.40;0.10;;;;;;;20.45;59.82;102540.06;5034778;28;20439;-64
2021/09/18 05:52:36;;;;;;;0.57;0.00;;;;;;;20.47;58.20;102537.19;5035012;28;20390;-65
2021/09/18 05:55:02;;;;;;;0.50;0.20;;;;;;;20.48;57.28;102539.78;5034728;28;20029;-65
2021/09/18 05:57:27;;;;;;;0.30;0.17;;;;;;;20.53;58.73;102537.50;5034443;28;20095;-65
2021/09/18 05:59:53;;;;;;;0.35;0.20;;;;;;;20.54;58.44;102543.81;5034854;28;20384;-64
2021/09/18 06:02:18;;;;;;;0.40;0.13;;;;;;;20.52;58.75;102543.13;5034438;28;20448;-64
2021/09/18 06:04:43;;;;;;;0.15;0.15;;;;;;;20.51;58.01;102550.44;5041093;28;20376;-65
2021/09/18 06:07:09;;;;;;;0.47;0.20;;;;;;;20.48;58.87;102539.78;5034367;28;20028;-66
2021/09/18 06:09:34;;;;;;;0.20;0.20;;;;;;;20.48;57.32;102545.25;5050907;28;20045;-64
2021/09/18 06:12:00;;;;;;;0.40;0.17;;;;;;;20.48;57.99;102550.72;5053701;28;20029;-65
2021/09/18 06:14:25;;;;;;;0.52;0.20;;;;;;;20.49;58.43;102541.53;5034476;28;20030;-66
2021/09/18 06:16:50;;;;;;;0.20;0.20;;;;;;;20.52;57.38;102543.97;5034327;28;20033;-65
2021/09/18 06:19:18;;;;;;;0.10;0.00;;;;;;;20.55;57.24;102549.16;5034254;28;20033;-64
2021/09/18 06:21:45;;;;;;;0.30;0.20;;;;;;;20.51;57.64;102544.97;5034420;28;20033;-65
2021/09/18 06:24:11;;;;;;;0.60;0.20;;;;;;;20.55;57.75;102540.94;5034002;28;20104;-65
2021/09/18 06:26:38;;;;;;;0.10;0.10;;;;;;;20.56;58.15;102545.41;5034488;28;20021;-65
2021/09/18 06:29:04;;;;;;;0.30;0.10;;;;;;;20.56;58.04;102545.41;5036584;28;20340;-65
2021/09/18 06:31:29;;;;;;;0.10;0.10;;;;;;;20.51;57.90;102550.44;5034172;28;20381;-65
2021/09/18 06:33:54;;;;;;;0.10;0.00;;;;;;;20.47;57.96;102559.91;5033983;28;20037;-65
2021/09/18 06:36:20;;;;;;;0.45;0.17;;;;;;;20.48;59.07;102556.19;5033956;28;20056;-66
2021/09/18 06:38:45;;;;;;;0.13;0.10;;;;;;;20.50;59.39;102556.06;5033907;28;20033;-65
2021/09/18 06:41:10;;;;;;;0.20;0.10;;;;;;;20.45;59.01;102540.06;5033698;28;20033;-65
2021/09/18 06:43:36;;;;;;;0.10;0.10;;;;;;;20.46;57.36;102525.41;5043529;28;20025;-65
2021/09/18 06:46:01;;;;;;;0.25;0.25;;;;;;;20.38;57.87;102534.31;5035388;28;20036;-65
2021/09/18 06:48:26;;;;;;;0.30;0.20;;;;;;;20.46;59.71;102544.53;5033433;28;20029;-64
2021/09/18 06:50:52;;;;;;;0.52;0.20;;;;;;;20.44;58.35;102546.53;5033813;28;20052;-65
2021/09/18 06:53:17;;;;;;;0.52;0.00;;;;;;;20.51;57.09;102544.97;5034801;28;20029;-65
2021/09/18 06:55:43;;;;;;;0.55;0.10;;;;;;;20.51;59.47;102550.44;5015773;28;20029;-66
2021/09/18 06:58:08;;;;;;;0.77;0.03;;;;;;;20.51;56.55;102549.59;5033472;28;20018;-64
2021/09/18 07:00:34;;;;;;;0.95;0.30;;;;;;;20.55;57.83;102545.53;5033657;28;20022;-65
2021/09/18 07:02:59;;;;;;;0.28;0.10;;;;;;;20.54;58.71;102546.56;5033251;28;20051;-65
2021/09/18 07:05:24;;;;;;;0.28;0.10;;;;;;;20.58;57.22;102546.13;5033181;28;20392;-66
2021/09/18 07:07:50;;;;;;;0.10;0.00;;;;;;;20.53;58.17;102559.34;5033558;28;20037;-65
2021/09/18 07:10:15;;;;;;;0.00;0.00;;;;;;;20.44;59.02;102543.81;5033372;28;20504;-64
2021/09/18 07:12:43;;;;;;;0.35;0.10;;;;;;;20.52;58.79;102551.31;5038174;28;20130;-65
2021/09/18 07:15:09;;;;;;;0.20;0.00;;;;;;;20.52;61.25;102549.44;5042857;28;20038;-65
2021/09/18 07:17:35;;;;;;;3.38;0.20;;;;;;;20.52;59.15;102551.31;5046465;28;20080;-65
2021/09/18 07:20:01;;;;;;;0.52;0.25;;;;;;;20.49;58.96;102562.50;5033262;28;20033;-65
2021/09/18 07:22:27;;;;;;;0.63;0.10;;;;;;;20.53;61.06;102563.97;5033157;28;20461;-65
2021/09/18 07:24:53;;;;;;;0.43;0.20;;;;;;;20.63;58.65;102556.59;5049728;28;20112;-66
2021/09/18 07:27:19;;;;;;;0.57;0.10;;;;;;;20.53;59.77;102559.34;5053121;28;20029;-64
2021/09/18 07:29:45;;;;;;;0.82;0.20;;;;;;;20.58;63.17;102556.19;5053387;28;20025;-65
2021/09/18 07:32:11;;;;;;;0.22;0.10;;;;;;;20.60;59.43;102557.75;5053119;28;20059;-65
2021/09/18 07:34:36;;;;;;;0.80;0.20;;;;;;;20.59;60.37;102561.50;5071951;22;20053;-66
2021/09/18 07:37:01;;;;;;;0.40;0.20;;;;;;;20.64;60.42;102559.19;5058547;28;20036;-64
2021/09/18 07:39:28;;;;;;;0.75;0.00;;;;;;;20.66;59.57;102554.47;5052984;28;20410;-66
2021/09/18 07:41:53;;;;;;;0.52;0.20;;;;;;;20.60;59.74;102555.03;5052884;28;20072;-65
2021/09/18 07:44:26;;;;;;;0.40;0.32;;;;;;;20.67;58.39;102556.19;5044156;28;20017;-63
2021/09/18 07:46:51;;;;;;;0.00;0.00;;;;;;;20.66;59.45;102562.66;5053125;28;20024;-64
2021/09/18 07:49:17;;;;;;;0.13;0.10;;;;;;;20.62;60.46;102558.47;5052745;28;20035;-65
2021/09/18 07:51:44;;;;;;;1.58;0.10;;;;;;;20.61;60.59;102554.00;5053009;28;20071;-65
2021/09/18 07:54:09;;;;;;;0.10;0.10;;;;;;;20.66;59.20;102557.19;5054941;28;20025;-66
2021/09/18 07:56:35;;;;;;;0.20;0.17;;;;;;;20.67;58.59;102553.44;5057362;28;20054;-64
2021/09/18 07:59:01;;;;;;;0.52;0.00;;;;;;;20.62;59.57;102557.59;5056947;28;20091;-66
2021/09/18 08:01:28;;;;;;;0.35;0.10;;;;;;;20.62;59.05;102553.00;5059288;28;20060;-64
2021/09/18 08:03:58;;;;;;;0.20;0.20;;;;;;;20.59;60.42;102558.75;5057579;28;20436;-65
2021/09/18 08:06:25;;;;;;;0.28;0.17;;;;;;;20.63;60.16;102564.78;5057002;28;20028;-65
2021/09/18 08:08:52;;;;;;;0.20;0.20;;;;;;;20.51;60.89;102565.97;5056483;28;20471;-66
2021/09/18 08:11:19;;;;;;;1.17;0.10;;;;;;;20.58;59.76;102567.97;5056573;28;20052;-65
2021/09/18 08:13:45;;;;;;;0.13;0.10;;;;;;;20.57;58.38;102574.44;5056606;28;20021;-65
2021/09/18 08:16:10;;;;;;;0.10;0.10;;;;;;;20.59;62.59;102568.84;5056480;28;20111;-65
2021/09/18 08:18:36;;;;;;;0.60;0.20;;;;;;;20.64;60.96;102578.31;5065253;28;20017;-65
2021/09/18 08:21:01;;;;;;;0.10;0.10;;;;;;;20.61;58.92;102589.53;5062949;28;20021;-65
2021/09/18 08:23:27;;;;;;;0.75;0.15;;;;;;;20.58;60.83;102581.63;5056471;28;20104;-65
2021/09/18 08:25:52;;;;;;;0.75;0.20;;;;;;;20.55;61.03;102584.66;5056312;28;20067;-65
2021/09/18 08:28:17;;;;;;;0.20;0.00;;;;;;;20.58;60.28;102575.31;5058759;28;20578;-66
2021/09/18 08:30:43;;;;;;;0.00;0.00;;;;;;;20.61;62.55;102578.59;5056469;28;20020;-66
2021/09/18 08:33:08;;;;;;;0.55;0.10;;;;;;;20.62;59.20;102580.34;5056114;28;20029;-65
2021/09/18 08:35:33;;;;;;;0.00;0.00;;;;;;;20.57;61.56;102570.84;5056324;28;20084;-65
2021/09/18 08:37:59;;;;;;;0.10;0.00;;;;;;;20.61;59.41;102578.59;5055782;28;20478;-66
2021/09/18 08:40:26;;;;;;;0.10;0.10;;;;;;;20.80;58.93;102574.13;5056327;28;20049;-64
2021/09/18 08:43:11;;;;;;;0.90;0.10;;;;;;;20.68;60.64;102578.91;5063222;28;20052;-65
2021/09/18 08:45:37;;;;;;;0.63;0.17;;;;;;;20.73;58.38;102572.00;5057979;28;20090;-65
2021/09/18 08:48:06;;;;;;;0.17;0.00;;;;;;;20.71;59.47;102574.00;5058732;28;20575;-65
2021/09/18 08:50:32;;;;;;;1.33;0.03;;;;;;;20.61;57.55;102583.22;5056002;28;20033;-66
2021/09/18 08:52:58;;;;;;;0.30;0.10;;;;;;;20.61;58.08;102578.59;5055879;28;20029;-65
2021/09/18 08:55:24;;;;;;;0.30;0.10;;;;;;;20.57;56.90;102582.66;5056153;28;20051;-65
2021/09/18 08:57:50;;;;;;;0.20;0.10;;;;;;;20.54;56.99;102593.00;5038002;28;20380;-66
2021/09/18 09:00:30;;;;;;;0.50;0.10;;;;;;;20.49;58.08;102593.44;5055716;28;20179;-66
2021/09/18 09:02:57;;;;;;;0.15;0.10;;;;;;;20.50;56.80;102597.91;5055361;28;20028;-66
2021/09/18 09:05:28;;;;;;;0.93;0.30;;;;;;;20.43;58.04;102603.06;5055555;28;20151;-64
2021/09/18 09:08:14;;;;;;;0.20;0.10;;;;;;;20.50;56.76;102597.91;5037615;28;20436;-65
2021/09/18 09:10:43;;;;;;;1.13;0.17;;;;;;;20.42;57.34;102600.47;5058448;28;20167;-65
2021/09/18 09:13:21;;;;;;;1.17;0.13;;;;;;;20.43;56.67;102596.72;5055436;28;20066;-66
2021/09/18 09:15:50;;;;;;;0.10;0.10;;;;;;;20.44;55.97;102598.47;5069755;28;20096;-65
2021/09/18 09:18:22;;;;;;;0.05;0.00;;;;;;;20.33;59.44;102601.31;5055323;28;20021;-66
2021/09/18 09:20:50;;;;;;;0.20;0.10;;;;;;;20.34;58.82;102608.50;5055336;28;20051;-65
2021/09/18 09:23:15;;;;;;;0.28;0.03;;;;;;;20.40;57.19;102603.31;5055114;28;20024;-65
2021/09/18 09:25:41;;;;;;;0.38;0.05;;;;;;;20.40;56.17;102607.91;5055011;28;20021;-65
2021/09/18 09:28:25;;;;;;;0.52;0.10;;;;;;;20.28;58.14;102598.13;5037386;28;20113;-65
2021/09/18 09:30:53;;;;;;;0.57;0.17;;;;;;;20.34;56.88;102597.56;5055446;28;20053;-65
2021/09/18 09:33:18;;;;;;;0.60;0.20;;;;;;;20.39;55.70;102600.72;5055165;28;20029;-65
2021/09/18 09:35:43;;;;;;;0.13;0.00;;;;;;;20.32;58.64;102594.09;5036689;28;20060;-63
2021/09/18 09:38:09;;;;;;;0.90;0.28;;;;;;;20.40;56.62;102602.44;5039902;28;20092;-66
2021/09/18 09:40:39;;;;;;;0.10;0.10;;;;;;;20.27;59.54;102596.41;5033748;28;20075;-65
2021/09/18 09:43:07;;;;;;;1.05;0.28;;;;;;;20.31;58.19;102603.28;5034990;28;20495;-65
2021/09/18 09:45:33;;;;;;;0.20;0.03;;;;;;;20.35;57.07;102599.28;5034957;28;20021;-66
2021/09/18 09:48:06;;;;;;;1.75;0.00;;;;;;;20.34;59.68;102605.78;5034832;28;20519;-65
2021/09/18 09:50:33;;;;;;;0.35;0.13;;;;;;;20.45;57.29;102602.91;5056801;28;20064;-65
2021/09/18 09:52:59;;;;;;;0.35;0.35;;;;;;;20.42;57.69;102601.34;5051601;28;20065;-64
2021/09/18 09:55:25;;;;;;;0.55;0.10;;;;;;;20.42;57.04;102600.47;5034629;28;20056;-66
2021/09/18 09:58:01;;;;;;;0.40;0.10;;;;;;;20.42;57.33;102608.66;5035091;28;20035;-66
2021/09/18 10:00:39;;;;;;;0.10;0.10;;;;;;;20.34;58.40;102611.22;5033716;28;20036;-65
2021/09/18 10:03:04;;;;;;;0.52;0.15;;;;;;;20.40;57.89;102602.44;5040786;28;20025;-64
2021/09/18 10:05:30;;;;;;;0.13;0.13;;;;;;;20.34;57.99;102611.22;5034638;28;20044;-65
2021/09/18 10:07:55;;;;;;;0.15;0.08;;;;;;;20.41;58.41;102598.75;5034405;28;20460;-65
2021/09/18 10:10:22;;;;;;;0.15;0.10;;;;;;;20.39;57.42;102601.59;5034462;28;20106;-66
2021/09/18 10:12:47;;;;;;;0.28;0.20;;;;;;;20.33;57.17;102606.78;5034482;28;20025;-64
2021/09/18 10:15:13;;;;;;;0.10;0.10;;;;;;;20.37;55.00;102598.16;5034439;28;20567;-66
2021/09/18 10:17:47;;;;;;;0.47;0.20;;;;;;;20.35;56.11;102602.03;5034243;28;20060;-65
2021/09/18 10:20:15;;;;;;;0.10;0.00;;;;;;;20.34;56.73;102612.09;5034537;28;20125;-66
2021/09/18 10:25:34;;;;;;;0.25;0.10;;;;;;;20.33;55.69;102613.09;5016275;28;20055;-64
2021/09/18 10:28:04;;;;;;;0.35;0.10;;;;;;;20.28;57.11;102614.50;5023492;28;20037;-65
2021/09/18 10:30:42;;;;;;;0.20;0.08;;;;;;;20.31;56.64;102614.22;5014625;28;20068;-66
2021/09/18 10:33:28;;;;;;;0.08;0.08;;;;;;;20.31;58.46;102619.69;5014357;28;20030;-65
2021/09/18 10:35:57;;;;;;;0.45;0.20;;;;;;;20.35;56.49;102616.56;4994673;28;20088;-66
2021/09/18 10:38:28;;;;;;;0.13;0.10;;;;;;;20.38;56.77;102609.94;4994801;28;20084;-66
2021/09/18 10:41:12;;;;;;;0.30;0.10;;;;;;;20.46;55.49;102618.28;4994579;28;20060;-65
2021/09/18 10:43:41;;;;;;;0.10;0.10;;;;;;;20.38;56.77;102615.41;4994805;28;20481;-65
2021/09/18 10:46:11;;;;;;;0.35;0.20;;;;;;;20.41;56.21;102620.59;4994607;28;20553;-65
2021/09/18 10:48:46;;;;;;;0.40;0.20;;;;;;;20.38;57.33;102621.72;4996821;28;20026;-66
2021/09/18 10:51:32;;;;;;;0.80;0.10;;;;;;;20.38;59.15;102609.94;5009267;28;20053;-66
2021/09/18 10:54:13;;;;;;;0.15;0.00;;;;;;;20.26;57.92;102617.38;4999350;28;20082;-65
2021/09/18 10:56:58;;;;;;;0.40;0.20;;;;;;;20.32;57.13;102616.84;4999825;28;20027;-66
2021/09/18 10:59:42;;;;;;;1.02;0.10;;;;;;;20.36;59.70;102623.75;4994306;28;20026;-67
2021/09/18 11:02:29;;;;;;;0.20;0.20;;;;;;;20.41;57.07;102620.59;4994074;28;20033;-65
2021/09/18 11:04:55;;;;;;;0.00;0.00;;;;;;;20.36;56.48;102620.16;4994245;28;20037;-65
2021/09/18 11:07:39;;;;;;;0.10;0.10;;;;;;;20.40;57.30;102621.56;4993979;28;20030;-65
2021/09/18 11:10:26;;;;;;;0.20;0.10;;;;;;;20.46;57.35;102631.97;4994077;28;20026;-64
2021/09/18 11:13:06;;;;;;;0.25;0.08;;;;;;;20.39;57.48;102617.13;4954843;29;20035;-64
2021/09/18 11:15:48;;;;;;;0.73;0.10;;;;;;;20.34;57.43;102620.28;4953283;29;20066;-64
2021/09/18 11:18:31;;;;;;;0.30;0.00;;;;;;;20.37;59.03;102619.13;4952990;29;20533;-65
2021/09/18 11:21:13;;;;;;;0.00;0.00;;;;;;;20.43;57.86;102613.13;4953164;29;20545;-66
2021/09/18 11:23:48;;;;;;;0.90;0.10;;;;;;;20.35;57.80;102611.09;4970626;28;20054;-65
2021/09/18 11:26:42;;;;;;;0.52;0.10;;;;;;;20.30;56.86;102618.81;4972166;28;20031;-66
2021/09/18 11:29:22;;;;;;;0.10;0.10;;;;;;;20.38;56.61;102609.94;4971438;28;20058;-66